Time;durP1;ratioP1;P1;durP2;ratioP2;P2;SDS_P1;SDS_P2;PMS_P1;PMS_P2;Temp;Humidity;BMP_temperature;BMP_pressure;BME280_temperature;BME280_humidity;BME280_pressure;Samples;Min_cycle;Max_cycle;Signal;HPM_P1;HPM_P2
2021/11/05 00:02:24;;;;;;;2.65;1.27;;;;;;;6.22;90.17;101561.91;5015328;28;20029;-70
2021/11/05 00:04:49;;;;;;;3.47;1.13;;;;;;;6.19;90.82;101567.31;5015521;28;20180;-70
2021/11/05 00:07:14;;;;;;;3.13;1.30;;;;;;;6.16;90.77;101570.19;5019007;28;20032;-70
2021/11/05 00:09:40;;;;;;;5.78;1.23;;;;;;;6.23;90.80;101563.53;5018953;28;20472;-70
2021/11/05 00:12:07;;;;;;;2.63;0.95;;;;;;;6.22;90.96;101567.03;5036701;28;20025;-70
2021/11/05 00:14:32;;;;;;;4.65;1.40;;;;;;;6.29;90.49;101567.28;5037198;28;20471;-70
2021/11/05 00:16:58;;;;;;;5.60;1.20;;;;;;;6.29;90.65;101573.22;5018849;28;20025;-70
2021/11/05 00:19:23;;;;;;;5.40;1.15;;;;;;;6.29;90.62;101568.09;5036505;28;20092;-70
2021/11/05 00:21:48;;;;;;;4.05;1.00;;;;;;;6.28;90.90;101566.50;5018630;28;20041;-70
2021/11/05 00:24:13;;;;;;;4.28;1.20;;;;;;;6.29;90.38;101573.22;5036295;28;20034;-70
2021/11/05 00:26:39;;;;;;;3.65;1.30;;;;;;;6.29;90.29;101578.38;5036376;28;20021;-70
2021/11/05 00:29:04;;;;;;;6.57;1.67;;;;;;;6.24;90.23;101579.72;5018703;28;20029;-70
2021/11/05 00:31:29;;;;;;;3.13;1.10;;;;;;;6.31;90.54;101581.59;5018449;28;20467;-68
2021/11/05 00:33:54;;;;;;;7.25;1.30;;;;;;;6.32;90.63;101585.78;5036224;28;20033;-68
2021/11/05 00:36:21;;;;;;;4.57;1.25;;;;;;;6.36;91.30;101590.63;5036446;28;20034;-69
2021/11/05 00:38:46;;;;;;;3.47;1.00;;;;;;;6.50;91.10;101592.75;5018482;28;20025;-70
2021/11/05 00:41:13;;;;;;;5.47;1.00;;;;;;;6.53;90.92;101592.47;5036295;28;20092;-69
2021/11/05 00:43:39;;;;;;;3.85;1.00;;;;;;;6.54;91.13;101599.25;5018192;28;20030;-70
2021/11/05 00:46:05;;;;;;;6.95;1.10;;;;;;;6.51;90.33;101597.78;5035990;28;20027;-69
2021/11/05 00:48:30;;;;;;;3.17;1.00;;;;;;;6.49;90.08;101604.00;5035869;28;20079;-69
2021/11/05 00:50:56;;;;;;;5.20;1.23;;;;;;;6.37;90.30;101595.66;5018136;28;20021;-70
2021/11/05 00:53:21;;;;;;;3.20;1.30;;;;;;;6.38;90.47;101601.59;5018210;28;20379;-70
2021/11/05 00:55:47;;;;;;;3.63;0.98;;;;;;;6.31;89.89;101591.88;5036056;28;20060;-70
2021/11/05 00:58:12;;;;;;;4.03;1.20;;;;;;;6.26;90.50;101591.47;5018069;28;20029;-70
2021/11/05 01:00:37;;;;;;;5.68;1.27;;;;;;;6.19;90.21;101595.56;5036016;28;20411;-71
2021/11/05 01:03:03;;;;;;;3.33;1.02;;;;;;;6.06;90.28;101593.25;5017828;28;20051;-70
2021/11/05 01:05:28;;;;;;;6.72;1.17;;;;;;;6.01;90.50;101592.88;5035495;28;20050;-70
2021/11/05 01:07:54;;;;;;;5.38;1.40;;;;;;;5.98;90.56;101605.16;5035836;28;20025;-68
2021/11/05 01:10:19;;;;;;;3.38;1.30;;;;;;;5.93;90.14;101613.28;5017835;28;20084;-69
2021/11/05 01:12:44;;;;;;;5.18;1.30;;;;;;;5.93;90.22;101613.28;5036063;28;20029;-68
2021/11/05 01:15:12;;;;;;;3.92;1.65;;;;;;;6.05;90.42;101621.66;5035760;28;20427;-71
2021/11/05 01:17:39;;;;;;;5.65;1.63;;;;;;;5.97;90.68;101618.94;5035456;28;20078;-70
2021/11/05 01:20:07;;;;;;;9.63;1.98;;;;;;;5.95;90.31;101625.97;5017690;28;20025;-70
2021/11/05 01:22:33;;;;;;;5.72;2.22;;;;;;;5.87;90.83;101632.56;5017577;28;20037;-69
2021/11/05 01:24:58;;;;;;;5.78;2.55;;;;;;;6.05;91.09;101622.44;5035269;28;20117;-69
2021/11/05 01:27:23;;;;;;;4.38;2.40;;;;;;;6.02;90.54;101634.75;5035286;28;20025;-70
2021/11/05 01:29:50;;;;;;;4.45;2.38;;;;;;;5.97;89.81;101634.34;5017515;28;20037;-70
2021/11/05 01:32:15;;;;;;;6.10;2.70;;;;;;;5.89;90.57;101629.84;5017349;28;20033;-70
2021/11/05 01:34:41;;;;;;;4.95;2.80;;;;;;;5.87;90.55;101635.13;5017408;28;20032;-69
2021/11/05 01:37:06;;;;;;;5.10;2.60;;;;;;;5.87;91.23;101637.69;5035115;28;20139;-69
2021/11/05 01:39:31;;;;;;;4.80;2.60;;;;;;;5.91;90.64;101635.66;5034968;28;20079;-70
2021/11/05 01:41:57;;;;;;;4.72;2.58;;;;;;;5.89;89.94;101640.91;5035557;28;20032;-69
2021/11/05 01:44:24;;;;;;;7.00;2.90;;;;;;;5.84;90.46;101642.25;5017068;28;20377;-69
2021/11/05 01:46:50;;;;;;;5.78;3.03;;;;;;;5.87;90.42;101644.59;5034936;28;20369;-69
2021/11/05 01:49:15;;;;;;;5.25;2.85;;;;;;;5.70;91.13;101625.53;5017039;28;20021;-70
2021/11/05 01:51:40;;;;;;;6.53;2.95;;;;;;;5.83;90.49;101641.47;5034800;28;20535;-69
2021/11/05 01:54:08;;;;;;;8.30;3.00;;;;;;;5.81;89.91;101639.97;5034815;28;20025;-69
2021/11/05 01:56:35;;;;;;;4.57;2.75;;;;;;;5.79;89.98;101645.25;5016943;28;20025;-70
2021/11/05 01:59:00;;;;;;;10.82;3.38;;;;;;;5.85;90.74;101649.84;5016781;28;20044;-70
2021/11/05 02:01:25;;;;;;;5.88;2.78;;;;;;;5.87;89.98;101653.09;5034593;28;20021;-70
2021/11/05 02:03:51;;;;;;;7.15;3.20;;;;;;;5.88;90.30;101649.56;5034491;28;20057;-70
2021/11/05 02:06:20;;;;;;;8.13;2.88;;;;;;;5.83;90.22;101651.72;5034388;28;20045;-71
2021/11/05 02:08:47;;;;;;;7.65;3.47;;;;;;;5.83;90.24;101658.59;5016716;28;20464;-70
2021/11/05 02:11:13;;;;;;;8.77;3.00;;;;;;;5.84;89.95;101650.78;5034375;28;20021;-70
2021/11/05 02:13:41;;;;;;;6.65;3.40;;;;;;;5.88;91.22;101654.69;5016581;28;20542;-70
2021/11/05 02:16:09;;;;;;;6.82;3.30;;;;;;;5.97;90.95;101657.44;5034895;28;20021;-70
2021/11/05 02:18:35;;;;;;;4.70;2.90;;;;;;;6.02;90.74;101655.28;5034328;28;20486;-71
2021/11/05 02:21:02;;;;;;;5.18;2.95;;;;;;;5.91;89.66;101665.63;5016578;28;20029;-70
2021/11/05 02:23:27;;;;;;;7.03;2.70;;;;;;;5.76;89.93;101662.66;5016436;28;20384;-69
2021/11/05 02:25:53;;;;;;;4.72;2.70;;;;;;;5.89;91.08;101666.56;5016842;28;20025;-69
2021/11/05 02:28:18;;;;;;;7.13;3.10;;;;;;;6.08;91.14;101660.66;5034180;28;20417;-69
2021/11/05 02:30:44;;;;;;;7.88;3.08;;;;;;;6.00;90.13;101670.00;5016389;28;20033;-69
2021/11/05 02:33:09;;;;;;;7.40;3.05;;;;;;;5.87;90.01;101672.81;5033997;28;20067;-69
2021/11/05 02:35:35;;;;;;;7.50;3.00;;;;;;;5.82;90.95;101673.19;5034205;28;20108;-69
2021/11/05 02:38:00;;;;;;;6.90;2.97;;;;;;;5.75;90.18;101669.53;5016320;28;20446;-69
2021/11/05 02:40:25;;;;;;;6.75;2.85;;;;;;;5.72;90.90;101677.47;5033874;28;20031;-69
2021/11/05 02:42:51;;;;;;;10.32;3.00;;;;;;;5.51;90.35;101682.72;5034118;28;20079;-69
2021/11/05 02:45:16;;;;;;;9.48;3.22;;;;;;;5.41;91.46;101681.91;5016087;28;20468;-69
2021/11/05 02:47:44;;;;;;;8.27;3.17;;;;;;;5.45;91.28;101683.25;5033815;28;20095;-69
2021/11/05 02:50:12;;;;;;;13.43;4.45;;;;;;;5.48;91.64;101682.19;5033753;28;20079;-69
2021/11/05 02:52:38;;;;;;;6.47;3.13;;;;;;;5.65;91.79;101686.66;5033679;28;20051;-69
2021/11/05 02:55:05;;;;;;;11.25;3.28;;;;;;;5.76;91.11;101676.28;5015988;28;20014;-69
2021/11/05 02:57:30;;;;;;;9.73;3.25;;;;;;;5.75;90.78;101684.91;5033616;28;20553;-69
2021/11/05 02:59:56;;;;;;;6.20;2.83;;;;;;;5.61;89.47;101686.13;5034172;28;20106;-69
2021/11/05 03:02:25;;;;;;;4.68;2.58;;;;;;;5.55;90.32;101694.34;5015910;28;20364;-69
2021/11/05 03:04:52;;;;;;;5.53;3.00;;;;;;;5.51;90.18;101695.53;5015612;28;20045;-69
2021/11/05 03:07:18;;;;;;;6.60;2.60;;;;;;;5.45;90.09;101698.63;5015730;28;20121;-70
2021/11/05 03:09:43;;;;;;;8.70;2.92;;;;;;;5.47;90.22;101701.88;5015814;28;20467;-70
2021/11/05 03:12:11;;;;;;;12.90;3.72;;;;;;;5.58;90.66;101700.94;5015822;28;20066;-70
2021/11/05 03:14:38;;;;;;;8.80;3.08;;;;;;;5.50;90.33;101703.38;5033418;28;20022;-70
2021/11/05 03:17:05;;;;;;;7.55;3.10;;;;;;;5.39;90.01;101704.28;5033447;28;20025;-70
2021/11/05 03:19:30;;;;;;;5.35;2.70;;;;;;;5.37;90.27;101711.28;5033388;28;20037;-69
2021/11/05 03:21:55;;;;;;;4.93;2.67;;;;;;;5.28;89.88;101719.75;5033400;28;20383;-69
2021/11/05 03:24:20;;;;;;;6.25;2.92;;;;;;;5.19;90.64;101719.59;5033380;28;20104;-69
2021/11/05 03:26:46;;;;;;;8.02;2.83;;;;;;;5.23;90.40;101725.25;5033379;28;20017;-69
2021/11/05 03:29:12;;;;;;;8.13;2.80;;;;;;;5.26;89.90;101722.44;5033273;28;20420;-69
2021/11/05 03:31:37;;;;;;;7.03;2.88;;;;;;;5.21;90.27;101724.59;5033269;28;20026;-69
2021/11/05 03:34:02;;;;;;;5.80;2.90;;;;;;;4.92;90.00;101696.25;5033521;28;20167;-69
2021/11/05 03:36:28;;;;;;;8.32;2.90;;;;;;;5.14;90.06;101739.66;5015579;28;20464;-69
2021/11/05 03:38:54;;;;;;;5.75;2.50;;;;;;;5.13;89.49;101745.72;5033336;28;20331;-69
2021/11/05 03:41:20;;;;;;;7.07;3.20;;;;;;;5.13;89.78;101748.28;5018440;28;20021;-69
2021/11/05 03:43:46;;;;;;;5.95;3.20;;;;;;;5.07;90.24;101748.78;5037118;28;20357;-69
2021/11/05 03:46:12;;;;;;;5.57;2.90;;;;;;;5.06;89.63;101761.72;5019709;28;20032;-69
2021/11/05 03:48:40;;;;;;;11.57;3.35;;;;;;;5.09;90.20;101764.88;5037082;28;20025;-69
2021/11/05 03:51:07;;;;;;;7.03;3.20;;;;;;;5.03;90.25;101762.78;5037035;28;20033;-69
2021/11/05 03:53:32;;;;;;;10.38;3.60;;;;;;;5.00;90.46;101768.16;5037061;28;20514;-69
2021/11/05 03:55:58;;;;;;;6.82;3.30;;;;;;;4.97;90.81;101773.53;5037067;28;20021;-69
2021/11/05 03:58:24;;;;;;;10.02;3.13;;;;;;;4.89;90.05;101774.19;5036916;28;20108;-69
2021/11/05 04:00:49;;;;;;;9.02;3.30;;;;;;;4.85;90.55;101780.47;5036807;28;20083;-69
2021/11/05 04:03:14;;;;;;;8.25;3.00;;;;;;;4.86;90.43;101787.25;5037244;28;20026;-69
2021/11/05 04:05:43;;;;;;;8.32;3.35;;;;;;;4.85;90.89;101792.47;5036583;28;20097;-69
2021/11/05 04:08:08;;;;;;;8.90;3.42;;;;;;;4.87;90.96;101793.16;5019011;28;20025;-69
2021/11/05 04:10:33;;;;;;;6.90;3.22;;;;;;;4.84;90.06;101793.41;5036708;28;20029;-69
2021/11/05 04:13:01;;;;;;;8.57;3.17;;;;;;;4.75;91.43;101794.97;5036593;28;20491;-69
2021/11/05 04:15:27;;;;;;;6.57;3.33;;;;;;;4.69;90.94;101791.16;5036643;28;20174;-69
2021/11/05 04:17:53;;;;;;;9.13;3.35;;;;;;;4.71;91.09;101793.59;5018875;28;20026;-69
2021/11/05 04:20:18;;;;;;;4.45;2.95;;;;;;;4.72;91.20;101798.59;5018728;28;20032;-69
2021/11/05 04:22:43;;;;;;;8.60;3.30;;;;;;;4.79;91.03;101801.47;5036800;28;20017;-70
2021/11/05 04:25:10;;;;;;;9.63;3.38;;;;;;;4.77;90.22;101805.88;5036359;28;20030;-69
2021/11/05 04:27:36;;;;;;;6.88;3.20;;;;;;;4.72;90.46;101808.84;5018625;28;20021;-70
2021/11/05 04:30:04;;;;;;;6.18;3.25;;;;;;;4.70;90.26;101815.81;5036413;28;20025;-70
2021/11/05 04:32:30;;;;;;;9.45;3.25;;;;;;;4.74;90.61;101813.81;5036056;28;20128;-70
2021/11/05 04:34:55;;;;;;;8.60;3.28;;;;;;;4.54;91.06;101779.56;5036438;28;20436;-70
2021/11/05 04:37:20;;;;;;;4.82;2.90;;;;;;;4.83;90.61;101815.63;5036153;28;20463;-70
2021/11/05 04:39:46;;;;;;;5.22;2.85;;;;;;;4.90;90.29;101819.34;5036154;28;20025;-69
2021/11/05 04:42:11;;;;;;;7.75;3.00;;;;;;;4.92;90.08;101820.03;5018340;28;20094;-70
2021/11/05 04:44:39;;;;;;;9.98;3.33;;;;;;;5.02;90.05;101837.22;5035965;28;20418;-69
2021/11/05 04:47:05;;;;;;;7.57;3.33;;;;;;;5.10;90.84;101834.84;5018766;28;20372;-68
2021/11/05 04:49:30;;;;;;;8.23;3.10;;;;;;;5.08;89.81;101829.84;5018168;28;20039;-69
2021/11/05 04:51:55;;;;;;;9.13;3.17;;;;;;;5.05;89.94;101836.97;5035540;28;20025;-69
2021/11/05 04:54:21;;;;;;;7.35;3.13;;;;;;;4.97;89.96;101829.88;5018191;28;20014;-70
2021/11/05 04:56:47;;;;;;;7.30;2.95;;;;;;;4.87;90.29;101831.59;5018130;28;20390;-69
2021/11/05 04:59:13;;;;;;;5.15;2.90;;;;;;;4.83;90.61;101837.88;5035837;28;20374;-69
2021/11/05 05:01:39;;;;;;;5.30;3.35;;;;;;;4.74;89.86;101842.00;5035778;28;20032;-71
2021/11/05 05:04:04;;;;;;;7.13;3.60;;;;;;;4.74;90.67;101844.56;5017681;28;20380;-70
2021/11/05 05:06:29;;;;;;;6.35;3.60;;;;;;;4.73;91.10;101853.97;5035712;28;20061;-69
2021/11/05 05:08:55;;;;;;;7.10;3.55;;;;;;;4.63;89.78;101858.22;5035813;28;20029;-69
2021/11/05 05:11:20;;;;;;;7.47;3.90;;;;;;;4.58;90.18;101851.84;5036437;28;20029;-69
2021/11/05 05:13:45;;;;;;;5.95;3.50;;;;;;;4.58;90.68;101862.09;5035505;28;20494;-70
2021/11/05 05:16:11;;;;;;;5.78;3.42;;;;;;;4.61;90.40;101866.97;5035511;28;20556;-70
2021/11/05 05:18:36;;;;;;;6.57;3.33;;;;;;;4.50;90.62;101845.56;5035724;28;20048;-70
2021/11/05 05:21:01;;;;;;;8.63;3.50;;;;;;;4.62;90.33;101871.94;5035337;28;20030;-69
2021/11/05 05:23:27;;;;;;;5.22;3.13;;;;;;;4.60;90.75;101875.56;5035313;28;20022;-69
2021/11/05 05:25:52;;;;;;;9.32;3.63;;;;;;;4.68;90.47;101883.44;5035247;28;20030;-69
2021/11/05 05:28:17;;;;;;;6.38;3.55;;;;;;;4.73;91.08;101879.59;5035292;28;20380;-69
2021/11/05 05:30:43;;;;;;;6.05;3.30;;;;;;;4.74;90.69;101882.97;5017380;28;20116;-69
2021/11/05 05:33:08;;;;;;;9.52;3.88;;;;;;;4.77;90.92;101882.72;5017368;28;20021;-69
2021/11/05 05:35:33;;;;;;;7.88;3.65;;;;;;;4.77;90.93;101887.84;5035062;28;20029;-69
2021/11/05 05:37:59;;;;;;;5.30;3.38;;;;;;;4.80;91.37;101887.59;5035171;28;20064;-69
2021/11/05 05:40:25;;;;;;;9.40;3.53;;;;;;;4.82;90.73;101903.66;5017283;28;20052;-69
2021/11/05 05:42:51;;;;;;;8.95;3.30;;;;;;;4.80;90.57;101897.84;5034892;28;20033;-69
2021/11/05 05:45:16;;;;;;;4.53;3.00;;;;;;;4.56;90.19;101875.00;5034894;28;20025;-69
2021/11/05 05:47:42;;;;;;;7.35;3.40;;;;;;;4.71;90.38;101909.63;5034905;28;20392;-69
2021/11/05 05:50:10;;;;;;;11.85;3.83;;;;;;;4.67;89.80;101915.94;5017101;28;20473;-69
2021/11/05 05:52:35;;;;;;;8.32;3.53;;;;;;;4.68;89.77;101916.75;5016974;28;20028;-69
2021/11/05 05:55:00;;;;;;;5.90;3.33;;;;;;;4.70;90.31;101918.25;5034829;28;20380;-68
2021/11/05 05:57:26;;;;;;;13.10;4.20;;;;;;;4.78;90.50;101930.47;5034965;28;20026;-69
2021/11/05 05:59:51;;;;;;;7.32;3.38;;;;;;;4.74;90.29;101923.94;5034682;28;20021;-69
2021/11/05 06:02:16;;;;;;;9.93;4.18;;;;;;;4.85;91.00;101939.28;5016360;28;20454;-69
2021/11/05 06:04:41;;;;;;;9.82;4.93;;;;;;;4.91;90.83;101932.84;5016350;28;20041;-70
2021/11/05 06:07:07;;;;;;;8.68;4.30;;;;;;;4.94;89.88;101938.53;5034492;28;20030;-69
2021/11/05 06:09:33;;;;;;;11.55;4.35;;;;;;;4.97;90.53;101940.84;5034431;28;20387;-69
2021/11/05 06:11:58;;;;;;;7.18;4.22;;;;;;;5.19;91.17;101951.97;5016716;28;20017;-69
2021/11/05 06:14:24;;;;;;;7.38;3.72;;;;;;;5.30;89.92;101941.69;5016684;28;20030;-69
2021/11/05 06:16:49;;;;;;;8.35;3.80;;;;;;;5.37;90.86;101939.41;5034366;28;20024;-69
2021/11/05 06:19:14;;;;;;;7.20;3.63;;;;;;;5.52;90.75;101948.41;5016565;28;20025;-70
2021/11/05 06:21:40;;;;;;;8.13;4.03;;;;;;;5.53;89.61;101960.31;5034220;28;20120;-70
2021/11/05 06:24:05;;;;;;;8.65;3.50;;;;;;;5.62;91.11;101954.44;5016462;28;20079;-69
2021/11/05 06:26:30;;;;;;;7.78;2.97;;;;;;;5.61;89.62;101960.50;5034431;28;20100;-69
2021/11/05 06:28:58;;;;;;;8.18;3.33;;;;;;;5.67;91.46;101961.78;5016361;28;20045;-69
2021/11/05 06:31:23;;;;;;;9.32;3.63;;;;;;;5.60;91.26;101974.25;5016406;28;20096;-70
2021/11/05 06:33:49;;;;;;;5.75;2.92;;;;;;;5.59;90.67;101976.97;5034058;28;20128;-69
2021/11/05 06:36:14;;;;;;;6.50;3.20;;;;;;;5.52;90.39;101983.50;5033941;28;20037;-69
2021/11/05 06:38:39;;;;;;;5.00;3.03;;;;;;;5.49;90.50;101982.00;5016134;28;20082;-69
2021/11/05 06:41:05;;;;;;;8.15;3.55;;;;;;;5.56;90.62;101982.34;5033875;28;20049;-70
2021/11/05 06:43:30;;;;;;;9.70;3.97;;;;;;;5.59;90.26;101984.66;5033927;28;20419;-70
2021/11/05 06:45:56;;;;;;;7.88;3.85;;;;;;;5.58;90.46;101983.00;5033787;28;20487;-69
2021/11/05 06:48:21;;;;;;;8.45;4.13;;;;;;;5.61;91.12;101990.44;5033794;28;20052;-70
2021/11/05 06:50:55;;;;;;;5.97;3.67;;;;;;;5.64;89.98;101996.16;5016071;28;20074;-69
2021/11/05 06:53:21;;;;;;;9.05;4.03;;;;;;;5.58;90.27;101999.22;5016022;28;20379;-68
2021/11/05 06:55:46;;;;;;;10.65;3.80;;;;;;;5.62;90.38;102012.63;5033942;28;20030;-71
2021/11/05 06:58:12;;;;;;;8.80;3.30;;;;;;;5.27;89.04;101972.69;5033879;28;20041;-70
2021/11/05 07:00:38;;;;;;;6.35;3.33;;;;;;;5.29;89.59;101982.78;5035067;28;20028;-70
2021/11/05 07:03:05;;;;;;;11.23;3.70;;;;;;;5.56;89.38;102016.47;5034718;28;20026;-70
2021/11/05 07:05:30;;;;;;;11.05;3.60;;;;;;;5.76;91.18;102017.44;5033445;28;20045;-71
2021/11/05 07:07:58;;;;;;;12.77;3.40;;;;;;;5.84;90.39;102025.34;5033572;28;20376;-72
2021/11/05 07:10:23;;;;;;;8.30;3.45;;;;;;;5.89;89.70;102028.31;5033674;28;20436;-71
2021/11/05 07:12:50;;;;;;;8.05;3.33;;;;;;;5.93;88.82;102028.94;5033497;28;20028;-71
2021/11/05 07:15:16;;;;;;;6.82;3.40;;;;;;;5.85;88.64;102038.97;5033386;28;20025;-71
2021/11/05 07:17:42;;;;;;;9.18;4.18;;;;;;;5.75;89.12;102040.63;5033527;28;20029;-72
2021/11/05 07:20:08;;;;;;;10.40;4.72;;;;;;;5.70;88.71;102047.88;5033518;28;20025;-71
2021/11/05 07:22:36;;;;;;;12.88;5.05;;;;;;;5.60;88.82;102014.47;5015769;28;20116;-70
2021/11/05 07:25:06;;;;;;;9.82;4.95;;;;;;;5.71;88.49;102059.78;5033748;28;20025;-71
2021/11/05 07:27:32;;;;;;;10.65;4.15;;;;;;;5.68;88.49;102060.03;5015482;28;20471;-69
2021/11/05 07:29:57;;;;;;;9.95;4.07;;;;;;;5.86;89.09;102064.47;5033146;28;20138;-70
2021/11/05 07:32:23;;;;;;;10.02;4.25;;;;;;;6.02;88.94;102070.97;5033368;28;20021;-69
2021/11/05 07:34:53;;;;;;;13.75;4.07;;;;;;;6.17;89.34;102072.28;5015650;28;20045;-69
2021/11/05 07:37:19;;;;;;;12.90;4.50;;;;;;;6.35;88.85;102079.41;5015551;28;20110;-71
2021/11/05 07:39:44;;;;;;;22.17;5.07;;;;;;;6.57;88.88;102083.56;5033209;28;20499;-68
2021/11/05 07:42:10;;;;;;;11.43;4.35;;;;;;;6.81;88.20;102088.38;5015485;28;20029;-69
2021/11/05 07:44:37;;;;;;;9.80;4.07;;;;;;;7.01;87.77;102084.94;5033136;28;20034;-70
2021/11/05 07:47:03;;;;;;;12.13;4.28;;;;;;;8.53;83.87;102087.72;5015512;28;20472;-69
2021/11/05 07:49:29;;;;;;;15.07;4.13;;;;;;;11.35;71.77;102092.84;5015544;28;20468;-72
2021/11/05 07:51:55;;;;;;;12.15;3.88;;;;;;;12.39;67.17;102094.75;5033091;28;20037;-68
2021/11/05 07:54:20;;;;;;;11.95;3.20;;;;;;;10.48;73.98;102109.53;5015367;28;20467;-67
2021/11/05 07:56:47;;;;;;;10.40;3.42;;;;;;;9.79;76.51;102106.78;5033050;28;20032;-68
2021/11/05 07:59:13;;;;;;;11.55;3.30;;;;;;;9.36;79.63;102113.50;5033011;28;20494;-67
2021/11/05 08:01:38;;;;;;;7.03;3.47;;;;;;;9.16;79.56;102112.00;5033071;28;20033;-67
2021/11/05 08:07:31;;;;;;;12.10;2.90;;;;;;;8.53;83.82;102133.31;5022702;28;20079;-67
2021/11/05 08:09:57;;;;;;;9.15;2.30;;;;;;;8.34;85.14;102132.38;5015186;28;20033;-67
2021/11/05 08:12:22;;;;;;;6.68;2.38;;;;;;;8.33;85.43;102135.06;5033196;28;20029;-67
2021/11/05 08:14:47;;;;;;;7.10;2.75;;;;;;;8.43;85.26;102135.91;5032976;28;20018;-66
2021/11/05 08:17:13;;;;;;;6.45;2.30;;;;;;;8.64;85.49;102137.47;5015191;28;20021;-66
2021/11/05 08:19:39;;;;;;;9.55;2.42;;;;;;;8.95;85.29;102130.31;5032789;28;20033;-66
2021/11/05 08:22:04;;;;;;;8.68;2.50;;;;;;;9.18;83.47;102136.69;5015225;28;20072;-66
2021/11/05 08:24:29;;;;;;;10.75;2.50;;;;;;;9.17;83.95;102139.41;5015103;28;20388;-67
2021/11/05 08:26:56;;;;;;;10.65;2.53;;;;;;;9.14;84.19;102139.69;5017307;28;20026;-67
2021/11/05 08:29:22;;;;;;;8.00;2.28;;;;;;;8.94;84.49;102113.19;5036369;28;20034;-68
2021/11/05 08:31:47;;;;;;;8.30;2.20;;;;;;;9.12;85.53;102144.19;5036228;28;20030;-66
2021/11/05 08:34:13;;;;;;;9.93;2.83;;;;;;;9.16;85.22;102148.91;5036011;28;20107;-66
2021/11/05 08:36:39;;;;;;;8.05;2.17;;;;;;;9.40;84.38;102152.72;5036268;28;20357;-67
2021/11/05 08:39:05;;;;;;;9.45;2.85;;;;;;;9.55;83.37;102153.03;5018372;28;20451;-66
2021/11/05 08:41:32;;;;;;;6.43;2.10;;;;;;;9.51;82.82;102146.53;5036106;28;20112;-66
2021/11/05 08:43:57;;;;;;;4.43;1.88;;;;;;;9.24;83.80;102161.91;5036621;28;20021;-66
2021/11/05 08:46:24;;;;;;;5.25;2.20;;;;;;;9.01;84.30;102160.66;5018121;28;20026;-66
2021/11/05 08:48:53;;;;;;;7.55;2.78;;;;;;;8.90;84.62;102150.53;5018222;28;20076;-66
2021/11/05 08:51:18;;;;;;;4.43;2.17;;;;;;;9.04;84.33;102176.66;5035857;28;20036;-66
2021/11/05 08:53:44;;;;;;;12.23;2.67;;;;;;;9.06;84.96;102184.25;5035972;28;20021;-67
2021/11/05 08:56:11;;;;;;;10.27;3.00;;;;;;;9.30;84.69;102178.56;5035817;28;20105;-67
2021/11/05 08:58:37;;;;;;;5.53;2.65;;;;;;;9.56;84.91;102188.22;5035795;28;20025;-67
2021/11/05 09:01:03;;;;;;;11.63;3.33;;;;;;;10.29;82.39;102188.88;5017937;28;20094;-66
2021/11/05 09:03:29;;;;;;;4.30;2.20;;;;;;;13.62;70.17;102194.59;5035740;28;20097;-69
2021/11/05 09:05:54;;;;;;;4.80;2.05;;;;;;;17.14;56.94;102199.25;5035787;28;20068;-67
2021/11/05 09:08:19;;;;;;;4.93;1.83;;;;;;;19.02;51.81;102198.19;5035550;28;20099;-67
2021/11/05 09:10:45;;;;;;;8.18;1.88;;;;;;;19.98;48.18;102205.09;5035565;28;20379;-67
2021/11/05 09:13:10;;;;;;;6.80;1.85;;;;;;;19.99;47.44;102204.06;5017885;28;20026;-68
2021/11/05 09:15:36;;;;;;;4.18;1.77;;;;;;;20.73;46.31;102202.34;5035490;28;20029;-68
2021/11/05 09:18:07;;;;;;;4.43;1.63;;;;;;;19.88;47.23;102216.06;5017778;28;20104;-68
2021/11/05 09:20:34;;;;;;;8.27;1.80;;;;;;;18.65;51.47;102209.19;5018038;28;20083;-67
2021/11/05 09:23:00;;;;;;;5.80;1.70;;;;;;;20.72;46.61;102206.00;5035333;28;20430;-68
2021/11/05 09:25:26;;;;;;;5.53;1.77;;;;;;;21.66;44.27;102210.81;5035248;28;20431;-69
2021/11/05 09:27:52;;;;;;;8.38;1.80;;;;;;;22.21;42.60;102208.72;5017541;28;20056;-69
2021/11/05 09:30:20;;;;;;;11.63;2.05;;;;;;;22.60;42.65;102214.25;5017482;28;20049;-70
2021/11/05 09:32:46;;;;;;;9.73;2.40;;;;;;;21.99;42.91;102213.72;5017396;28;20120;-69
2021/11/05 09:35:11;;;;;;;7.65;2.10;;;;;;;22.97;40.90;102221.88;5017369;28;20059;-69
2021/11/05 09:37:38;;;;;;;9.38;2.03;;;;;;;23.42;40.29;102229.00;5034229;28;20033;-67
2021/11/05 09:40:06;;;;;;;8.27;2.40;;;;;;;23.67;40.89;102230.44;5035017;28;20029;-68
2021/11/05 09:42:32;;;;;;;8.45;1.80;;;;;;;24.27;39.41;102233.22;5034993;28;20060;-69
2021/11/05 09:44:59;;;;;;;8.48;2.03;;;;;;;25.32;37.12;102232.34;5017078;28;20104;-68
2021/11/05 09:47:26;;;;;;;10.07;2.33;;;;;;;24.60;38.96;102241.31;5017196;28;20029;-68
2021/11/05 09:49:52;;;;;;;6.20;2.03;;;;;;;25.37;36.13;102243.75;5017112;28;20475;-69
2021/11/05 09:52:17;;;;;;;6.27;2.13;;;;;;;25.23;36.15;102239.91;5017105;28;20029;-68
2021/11/05 09:54:47;;;;;;;6.55;2.20;;;;;;;25.37;35.67;102256.19;5016950;28;20292;-67
2021/11/05 09:57:12;;;;;;;10.57;2.28;;;;;;;26.05;37.02;102235.31;5017025;28;20527;-68
2021/11/05 09:59:38;;;;;;;10.47;2.20;;;;;;;25.16;36.44;102258.66;5016797;28;20126;-68
2021/11/05 10:02:03;;;;;;;9.40;2.07;;;;;;;26.03;35.50;102263.91;5034408;28;20402;-68
2021/11/05 10:04:28;;;;;;;8.37;2.40;;;;;;;24.92;39.42;102267.91;5016860;28;20284;-69
2021/11/05 10:07:08;;;;;;;8.63;2.10;;;;;;;26.08;35.78;102266.59;5034477;28;20284;-67
2021/11/05 10:09:54;;;;;;;9.05;1.95;;;;;;;26.19;35.08;102270.09;5034521;28;20567;-68
2021/11/05 10:12:24;;;;;;;9.13;2.35;;;;;;;25.41;35.26;102284.56;5034557;28;20045;-68
2021/11/05 10:15:00;;;;;;;11.10;2.40;;;;;;;24.90;37.02;102288.47;5016578;28;20420;-68
2021/11/05 10:17:26;;;;;;;9.98;2.92;;;;;;;26.58;35.35;102278.53;5016548;28;20029;-68
2021/11/05 10:23:15;;;;;;;;;;;;;;;26.22;34.66;102280.19;5034836;28;20538;-68
2021/11/05 10:25:47;;;;;;;7.88;2.00;;;;;;;27.16;32.52;102276.63;5016546;28;19912;-69
2021/11/05 10:28:24;;;;;;;7.30;1.70;;;;;;;25.61;35.70;102288.44;5034097;28;20021;-69
2021/11/05 10:30:51;;;;;;;6.40;1.83;;;;;;;20.43;46.86;102281.81;5017444;28;20456;-69
2021/11/05 10:33:24;;;;;;;5.95;1.77;;;;;;;17.06;56.62;102282.19;5034117;28;20384;-67
2021/11/05 10:35:53;;;;;;;8.98;1.58;;;;;;;16.68;59.11;102283.34;5034334;28;20032;-68
2021/11/05 10:38:20;;;;;;;5.85;1.65;;;;;;;17.31;54.93;102282.50;5034100;28;20028;-67
2021/11/05 10:40:52;;;;;;;4.47;1.38;;;;;;;14.51;65.96;102301.50;5016479;28;20450;-67
2021/11/05 10:43:42;;;;;;;4.80;0.73;;;;;;;13.32;68.11;102303.47;5033892;28;20079;-67
2021/11/05 10:46:22;;;;;;;3.03;0.60;;;;;;;13.13;69.25;102315.03;5033861;28;20420;-67
2021/11/05 10:48:48;;;;;;;4.05;0.80;;;;;;;12.91;70.60;102313.13;5015660;28;20025;-67
2021/11/05 10:51:13;;;;;;;1.55;0.43;;;;;;;12.45;71.94;102312.84;5033710;28;20025;-67
2021/11/05 10:53:41;;;;;;;2.58;0.47;;;;;;;12.57;72.04;102306.34;5016548;28;20037;-67
2021/11/05 10:56:12;;;;;;;5.50;0.70;;;;;;;12.39;74.16;102320.28;5015998;28;20021;-67
2021/11/05 10:58:51;;;;;;;4.20;0.68;;;;;;;12.19;75.03;102322.38;5033474;28;20104;-67
2021/11/05 11:01:20;;;;;;;4.00;0.77;;;;;;;11.85;77.08;102329.38;5033513;28;20483;-67
2021/11/05 11:03:57;;;;;;;5.30;0.70;;;;;;;11.63;78.20;102299.72;5015611;28;20034;-67
2021/11/05 11:06:37;;;;;;;8.88;1.15;;;;;;;11.53;79.73;102336.06;5033956;28;20033;-67
2021/11/05 11:09:09;;;;;;;3.00;0.77;;;;;;;11.33;81.90;102340.66;5016180;28;20471;-66
2021/11/05 11:11:39;;;;;;;5.75;0.80;;;;;;;11.17;82.58;102343.97;5015739;28;20036;-67
2021/11/05 11:14:17;;;;;;;3.45;0.80;;;;;;;11.21;83.51;102347.06;5015655;28;20384;-66
2021/11/05 11:20:04;;;;;;;2.00;0.65;;;;;;;11.44;82.37;102353.31;5033534;28;20111;-67
2021/11/05 11:22:29;;;;;;;3.30;0.65;;;;;;;11.72;80.49;102348.78;5015725;28;20468;-67
2021/11/05 11:24:55;;;;;;;3.33;0.60;;;;;;;12.11;79.21;102356.06;5015641;28;20072;-67
2021/11/05 11:27:20;;;;;;;6.15;1.13;;;;;;;12.52;76.52;102357.91;5015343;28;20037;-66
2021/11/05 11:29:48;;;;;;;1.35;0.45;;;;;;;13.57;72.77;102350.16;5033243;28;20021;-67
2021/11/05 11:32:14;;;;;;;4.32;0.70;;;;;;;14.89;68.06;102356.94;5033128;28;20025;-67
2021/11/05 11:34:39;;;;;;;8.77;1.10;;;;;;;15.54;64.68;102355.47;5033175;28;20036;-66
2021/11/05 11:37:05;;;;;;;5.20;0.88;;;;;;;16.60;61.59;102356.59;5015429;28;20031;-67
2021/11/05 11:39:32;;;;;;;2.60;0.68;;;;;;;17.02;59.71;102349.69;5033226;28;20029;-66